Time;durP1;ratioP1;P1;durP2;ratioP2;P2;SDS_P1;SDS_P2;PMS_P1;PMS_P2;Temp;Humidity;BMP_temperature;BMP_pressure;BME280_temperature;BME280_humidity;BME280_pressure;Samples;Min_cycle;Max_cycle;Signal;HPM_P1;HPM_P2
2022/12/12 00:00:20;;;;;;;42.67;23.67;;;;;;;-2.00;100.00;101019.78;5260389;28;20489;-84
2022/12/12 00:02:52;;;;;;;39.05;22.38;;;;;;;-2.08;100.00;101018.34;5259571;28;20285;-84
2022/12/12 00:05:23;;;;;;;38.28;22.58;;;;;;;-2.06;100.00;101033.06;5257975;28;20033;-84
2022/12/12 00:07:55;;;;;;;43.20;22.77;;;;;;;-2.15;100.00;101026.41;5257394;28;20109;-84
2022/12/12 00:10:26;;;;;;;43.33;25.17;;;;;;;-2.21;100.00;101034.50;5258284;28;20526;-85
2022/12/12 00:12:58;;;;;;;46.28;24.02;;;;;;;-2.35;100.00;101024.53;5240414;28;20032;-85
2022/12/12 00:15:29;;;;;;;37.97;20.23;;;;;;;-2.39;100.00;101022.91;5261177;28;20037;-85
2022/12/12 00:18:00;;;;;;;42.65;22.45;;;;;;;-2.37;100.00;101028.09;5261051;28;20104;-85
2022/12/12 00:20:32;;;;;;;39.72;23.08;;;;;;;-2.42;100.00;101022.19;5258585;28;20116;-84
2022/12/12 00:23:04;;;;;;;40.95;23.10;;;;;;;-2.44;100.00;101027.44;5261219;28;20025;-83
2022/12/12 00:25:35;;;;;;;45.67;24.63;;;;;;;-2.45;100.00;101023.16;5260893;28;20048;-85
2022/12/12 00:28:06;;;;;;;44.78;24.23;;;;;;;-2.47;100.00;101019.75;5259960;28;20144;-84
2022/12/12 00:30:38;;;;;;;45.40;24.73;;;;;;;-2.48;100.00;101023.25;5260577;28;20477;-84
2022/12/12 00:33:09;;;;;;;45.17;24.58;;;;;;;-2.51;100.00;101029.47;5262034;28;20079;-84
2022/12/12 00:35:40;;;;;;;42.60;24.30;;;;;;;-2.59;100.00;101035.84;5260281;28;20033;-84
2022/12/12 00:38:12;;;;;;;48.05;24.52;;;;;;;-2.60;100.00;101034.13;5260666;28;20029;-84
2022/12/12 00:40:45;;;;;;;49.03;25.20;;;;;;;-2.66;100.00;101028.22;5260723;28;20037;-84
2022/12/12 00:43:16;;;;;;;45.30;24.77;;;;;;;-2.72;100.00;101033.66;5258557;28;20037;-84
2022/12/12 00:45:47;;;;;;;47.75;25.05;;;;;;;-2.76;100.00;101034.66;5261362;28;20037;-84
2022/12/12 00:48:19;;;;;;;49.30;26.30;;;;;;;-2.79;100.00;101033.91;5260480;28;20525;-84
2022/12/12 00:50:51;;;;;;;46.90;25.65;;;;;;;-2.85;100.00;101035.81;5260624;28;21396;-84
2022/12/12 00:53:23;;;;;;;48.25;24.23;;;;;;;-2.80;100.00;101037.44;5260825;28;20108;-84
2022/12/12 00:55:56;;;;;;;55.42;26.10;;;;;;;-2.86;100.00;101034.13;5264854;28;20398;-85
2022/12/12 00:58:28;;;;;;;50.08;25.23;;;;;;;-2.84;100.00;101034.06;5268442;28;20021;-85
2022/12/12 01:01:05;;;;;;;47.08;25.08;;;;;;;-2.90;100.00;101040.34;5282677;28;20101;-84
2022/12/12 01:03:38;;;;;;;46.45;25.73;;;;;;;-2.91;100.00;101041.28;5280415;28;20029;-83
2022/12/12 01:06:11;;;;;;;47.53;26.13;;;;;;;-2.93;100.00;101045.69;5275780;28;20025;-84
2022/12/12 01:08:42;;;;;;;52.63;26.40;;;;;;;-2.95;100.00;101041.41;5267922;28;20025;-84
2022/12/12 01:11:15;;;;;;;59.80;29.38;;;;;;;-3.02;100.00;101039.91;5260886;28;20079;-84
2022/12/12 01:13:50;;;;;;;53.80;28.10;;;;;;;-3.09;100.00;101049.69;5259305;28;20053;-84
2022/12/12 01:16:22;;;;;;;54.58;27.13;;;;;;;-3.10;100.00;101064.50;5260640;28;20033;-84
2022/12/12 01:18:54;;;;;;;52.58;26.17;;;;;;;-3.12;100.00;101055.88;5259899;28;20539;-84
2022/12/12 01:21:26;;;;;;;58.22;29.73;;;;;;;-3.11;100.00;101057.56;5259700;28;20025;-84
2022/12/12 01:23:57;;;;;;;54.80;27.17;;;;;;;-3.10;100.00;101059.28;5260276;28;21441;-84
2022/12/12 01:26:28;;;;;;;51.72;26.02;;;;;;;-3.08;100.00;101062.69;5259398;28;20099;-85
2022/12/12 01:29:00;;;;;;;54.80;27.50;;;;;;;-3.11;100.00;101064.56;5247755;28;20021;-84
2022/12/12 01:31:32;;;;;;;55.50;27.70;;;;;;;-3.11;100.00;101062.78;5258589;28;20458;-84
2022/12/12 01:34:03;;;;;;;54.88;26.90;;;;;;;-3.15;100.00;101062.97;5244582;28;20080;-84
2022/12/12 01:36:35;;;;;;;53.53;26.00;;;;;;;-3.29;100.00;101066.00;5258289;28;20071;-84
2022/12/12 01:39:06;;;;;;;59.40;28.58;;;;;;;-3.21;100.00;101074.41;5259152;28;20033;-84
2022/12/12 01:41:38;;;;;;;54.75;26.30;;;;;;;-3.29;100.00;101068.63;5258162;28;20053;-85
2022/12/12 01:44:40;;;;;;;53.80;26.35;;;;;;;-3.27;100.00;101077.25;5258683;28;20021;-84
2022/12/12 01:47:14;;;;;;;56.05;27.85;;;;;;;-3.28;100.00;101072.91;5258347;28;20029;-84
2022/12/12 01:49:53;;;;;;;49.67;26.33;;;;;;;-3.35;100.00;101074.84;5259279;28;20026;-84
2022/12/12 01:52:29;;;;;;;53.35;25.45;;;;;;;-3.34;100.00;101086.16;5248825;28;20433;-85
2022/12/12 01:55:04;;;;;;;54.10;24.98;;;;;;;-3.33;100.00;101086.13;5264375;28;20052;-83
2022/12/12 01:57:41;;;;;;;51.60;23.60;;;;;;;-3.30;100.00;101083.38;5264461;28;20141;-85
2022/12/12 02:00:14;;;;;;;55.00;26.67;;;;;;;-3.32;100.00;101079.13;5259061;28;20032;-84
2022/12/12 02:02:46;;;;;;;52.75;25.85;;;;;;;-3.35;100.00;101087.91;5257715;28;20064;-85
2022/12/12 02:05:26;;;;;;;54.72;25.65;;;;;;;-3.28;100.00;101091.19;5257041;28;20036;-84
2022/12/12 02:08:01;;;;;;;49.65;24.80;;;;;;;-3.39;100.00;101088.91;5254594;28;20038;-85
2022/12/12 02:10:33;;;;;;;58.30;27.55;;;;;;;-3.49;100.00;101090.09;5256753;28;20091;-84
2022/12/12 02:13:13;;;;;;;58.13;26.05;;;;;;;-3.49;100.00;101095.28;5258528;28;20485;-84
2022/12/12 02:16:10;;;;;;;58.10;27.30;;;;;;;-3.54;100.00;101090.25;5238444;28;20082;-84
2022/12/12 02:18:56;;;;;;;55.58;26.85;;;;;;;-3.62;100.00;101079.19;5256653;28;20045;-84
2022/12/12 02:21:42;;;;;;;65.25;28.23;;;;;;;-3.62;100.00;101097.44;5255661;28;20041;-84
2022/12/12 02:24:39;;;;;;;54.47;26.20;;;;;;;-3.65;100.00;101093.13;5255763;28;20474;-84
2022/12/12 02:27:24;;;;;;;59.20;26.77;;;;;;;-3.66;100.00;101094.06;5257088;28;20033;-84
2022/12/12 02:30:40;;;;;;;57.30;26.45;;;;;;;-3.73;100.00;101094.31;5255360;28;20334;-85
2022/12/12 02:33:26;;;;;;;51.67;26.20;;;;;;;-3.74;100.00;101096.03;5207147;28;20053;-84
2022/12/12 02:36:18;;;;;;;54.63;26.15;;;;;;;-3.77;100.00;101096.09;5256272;28;20026;-85
2022/12/12 02:39:03;;;;;;;60.33;28.25;;;;;;;-3.86;100.00;101094.63;5256230;28;22114;-84
2022/12/12 02:41:41;;;;;;;58.42;26.08;;;;;;;-3.80;100.00;101096.22;5256691;28;20052;-85
2022/12/12 02:44:31;;;;;;;61.38;29.98;;;;;;;-3.80;100.00;101099.69;5258644;28;20032;-85
2022/12/12 02:47:14;;;;;;;59.47;27.30;;;;;;;-3.84;100.00;101103.28;5255782;28;20165;-84
2022/12/12 02:49:48;;;;;;;57.50;26.05;;;;;;;-3.84;100.00;101097.19;5257718;28;20025;-84
2022/12/12 02:52:20;;;;;;;64.65;27.60;;;;;;;-3.82;100.00;101098.03;5258144;28;20064;-84
2022/12/12 02:54:51;;;;;;;66.90;28.50;;;;;;;-3.86;100.00;101097.22;5257530;28;20030;-85
2022/12/12 02:57:25;;;;;;;65.80;27.98;;;;;;;-3.89;100.00;101093.84;5258468;28;20029;-84
2022/12/12 03:00:01;;;;;;;58.30;27.20;;;;;;;-3.92;100.00;101092.22;5259055;28;20035;-85
2022/12/12 03:02:47;;;;;;;59.38;27.48;;;;;;;-3.90;100.00;101094.78;5259312;28;20049;-84
2022/12/12 03:08:37;;;;;;;61.42;27.20;;;;;;;-3.86;100.00;101091.16;5283693;28;20386;-83
2022/12/12 03:11:16;;;;;;;58.95;27.30;;;;;;;-3.84;100.00;101084.16;5277404;28;20033;-84
2022/12/12 03:13:56;;;;;;;62.88;27.02;;;;;;;-3.78;100.00;101081.38;5275659;28;20047;-84
2022/12/12 03:16:38;;;;;;;55.15;25.33;;;;;;;-3.82;100.00;101093.66;5258840;28;20437;-84
2022/12/12 03:19:15;;;;;;;63.10;28.00;;;;;;;-3.84;100.00;101091.97;5243002;28;20124;-84
2022/12/12 03:22:07;;;;;;;63.85;28.00;;;;;;;-3.88;100.00;101090.38;5256876;28;20771;-85
2022/12/12 03:24:54;;;;;;;61.95;28.33;;;;;;;-3.93;100.00;101087.03;5256828;28;20025;-85
2022/12/12 03:27:39;;;;;;;61.97;25.58;;;;;;;-3.97;100.00;101078.47;5256293;28;20046;-84
2022/12/12 03:30:14;;;;;;;60.00;28.15;;;;;;;-4.01;100.00;101085.50;5256563;28;20364;-85
2022/12/12 03:32:57;;;;;;;62.20;26.60;;;;;;;-4.02;100.00;101085.53;5256920;28;20071;-85
2022/12/12 03:35:41;;;;;;;58.45;26.70;;;;;;;-4.12;100.00;101082.38;5255818;28;20026;-84
2022/12/12 03:38:23;;;;;;;52.30;25.23;;;;;;;-4.11;100.00;101080.59;5255451;28;20088;-84
2022/12/12 03:40:59;;;;;;;53.33;24.77;;;;;;;-4.14;100.00;101088.50;5256054;28;20029;-85
2022/12/12 03:43:45;;;;;;;57.83;27.33;;;;;;;-4.22;100.00;101083.50;5255463;28;20091;-84
2022/12/12 03:46:26;;;;;;;54.28;25.95;;;;;;;-4.26;100.00;101079.25;5254705;28;20033;-84
2022/12/12 03:49:07;;;;;;;59.25;26.45;;;;;;;-4.31;100.00;101088.94;5261334;28;20068;-84
2022/12/12 03:51:45;;;;;;;56.55;25.60;;;;;;;-4.47;100.00;101096.31;5243342;28;20025;-84
2022/12/12 03:54:25;;;;;;;53.70;25.55;;;;;;;-4.50;100.00;101089.47;5259076;28;20351;-85
2022/12/12 03:56:56;;;;;;;60.13;26.25;;;;;;;-4.57;100.00;101088.75;5258869;28;20068;-84
2022/12/12 03:59:41;;;;;;;53.25;26.48;;;;;;;-4.65;100.00;101093.28;5259833;28;20030;-84
2022/12/12 04:02:26;;;;;;;49.55;24.00;;;;;;;-4.68;100.00;101098.59;5259701;28;20037;-84
2022/12/12 04:05:19;;;;;;;54.97;25.40;;;;;;;-4.77;100.00;101093.59;5259632;28;20137;-84
2022/12/12 04:08:14;;;;;;;48.65;22.55;;;;;;;-4.71;100.00;101095.22;5257914;28;20095;-84
2022/12/12 04:13:56;;;;;;;51.92;24.45;;;;;;;-4.91;100.00;101099.16;5258467;28;20037;-84
2022/12/12 04:16:39;;;;;;;51.17;25.07;;;;;;;-4.97;100.00;101102.75;5239618;28;20033;-84
2022/12/12 04:23:13;;;;;;;57.97;26.08;;;;;;;-5.00;100.00;101097.63;5245746;28;20403;-83
2022/12/12 04:25:31;;;;;;;50.78;23.67;;;;;;;-5.03;100.00;101102.06;5259115;28;20021;-84
2022/12/12 04:28:06;;;;;;;57.30;24.52;;;;;;;-5.06;100.00;101104.75;5253198;28;20681;-84
2022/12/12 04:30:38;;;;;;;52.40;24.83;;;;;;;-5.07;100.00;101110.84;5257239;28;20469;-84
2022/12/12 04:33:13;;;;;;;52.13;22.63;;;;;;;-5.05;100.00;101114.25;5259749;28;20569;-83
2022/12/12 04:35:49;;;;;;;49.63;23.65;;;;;;;-5.10;100.00;101116.97;5259852;28;20084;-84
2022/12/12 04:38:22;;;;;;;54.45;24.27;;;;;;;-5.13;100.00;101117.03;5257613;28;20030;-84
2022/12/12 04:40:58;;;;;;;54.95;25.83;;;;;;;-5.11;100.00;101117.84;5258015;28;20466;-85
2022/12/12 04:43:32;;;;;;;56.63;24.88;;;;;;;-5.09;100.00;101120.41;5259983;28;20433;-84
2022/12/12 04:46:12;;;;;;;58.17;24.98;;;;;;;-5.10;100.00;101134.31;5258420;28;20033;-84
2022/12/12 04:48:51;;;;;;;52.58;24.35;;;;;;;-5.11;100.00;101123.06;5257505;28;20061;-84
2022/12/12 04:51:31;;;;;;;52.45;24.52;;;;;;;-5.18;100.00;101122.34;5256708;28;20026;-85
2022/12/12 04:54:40;;;;;;;52.08;24.08;;;;;;;-5.21;100.00;101127.59;5257626;28;20445;-84
2022/12/12 04:57:17;;;;;;;57.13;23.63;;;;;;;-5.24;100.00;101125.09;5256613;28;20049;-84
2022/12/12 04:59:49;;;;;;;53.75;25.42;;;;;;;-5.30;100.00;101127.81;5257533;28;20089;-84
2022/12/12 05:02:36;;;;;;;57.38;25.58;;;;;;;-5.28;100.00;101127.78;5256946;28;20144;-85
2022/12/12 05:05:14;;;;;;;58.55;24.05;;;;;;;-5.28;100.00;101126.03;5258866;28;20433;-85
2022/12/12 05:07:52;;;;;;;54.45;24.10;;;;;;;-5.28;100.00;101127.78;5257182;28;20038;-85
2022/12/12 05:10:24;;;;;;;50.67;23.80;;;;;;;-5.29;100.00;101121.75;5255356;28;20079;-85
2022/12/12 05:12:57;;;;;;;58.58;26.38;;;;;;;-5.28;100.00;101123.44;5274747;28;20029;-85
2022/12/12 05:15:29;;;;;;;57.05;24.30;;;;;;;-5.28;100.00;101113.03;5257339;28;20447;-85
2022/12/12 05:18:06;;;;;;;50.05;23.70;;;;;;;-5.26;100.00;101118.19;5260918;28;20165;-85
2022/12/12 05:20:37;;;;;;;52.67;23.85;;;;;;;-5.27;100.00;101126.91;5260437;28;20026;-85
2022/12/12 05:23:09;;;;;;;57.70;26.15;;;;;;;-5.29;100.00;101121.75;5264417;28;20089;-84
2022/12/12 05:25:40;;;;;;;58.33;25.67;;;;;;;-5.26;100.00;101120.81;5266031;28;20035;-85
2022/12/12 05:28:13;;;;;;;55.03;23.45;;;;;;;-5.18;100.00;101124.09;5264277;28;20055;-84
2022/12/12 05:30:44;;;;;;;60.40;26.25;;;;;;;-5.20;100.00;101110.28;5264314;28;20032;-83
2022/12/12 05:33:15;;;;;;;51.75;23.08;;;;;;;-5.19;100.00;101127.56;5264596;28;20022;-84
2022/12/12 05:35:47;;;;;;;59.25;24.90;;;;;;;-5.26;100.00;101126.88;5259568;28;20048;-85
2022/12/12 05:38:18;;;;;;;55.72;23.08;;;;;;;-5.24;100.00;101132.91;5262961;28;20481;-84
2022/12/12 05:40:50;;;;;;;54.42;25.58;;;;;;;-5.25;100.00;101133.78;5266130;28;20028;-84
2022/12/12 05:43:21;;;;;;;58.72;24.73;;;;;;;-5.22;100.00;101131.13;5267693;28;20069;-84
2022/12/12 05:45:52;;;;;;;53.97;24.98;;;;;;;-5.27;100.00;101135.56;5262661;28;20025;-83
2022/12/12 05:48:24;;;;;;;62.65;26.30;;;;;;;-5.28;100.00;101130.38;5253485;28;20045;-82
2022/12/12 05:50:56;;;;;;;58.85;24.95;;;;;;;-5.24;100.00;101134.63;5271200;28;20025;-84
2022/12/12 05:53:28;;;;;;;55.95;24.05;;;;;;;-5.27;100.00;101138.16;5269643;28;20434;-84
2022/12/12 05:55:59;;;;;;;60.28;24.17;;;;;;;-5.24;100.00;101140.69;5258813;28;20101;-84
2022/12/12 05:58:31;;;;;;;57.63;23.40;;;;;;;-5.31;100.00;101139.13;5255619;28;20085;-84
2022/12/12 06:01:03;;;;;;;50.97;21.13;;;;;;;-5.34;100.00;101136.59;5256164;28;20111;-84
2022/12/12 06:03:35;;;;;;;58.03;23.60;;;;;;;-5.33;100.00;101140.88;5256009;28;20037;-84
2022/12/12 06:06:06;;;;;;;61.03;25.50;;;;;;;-5.40;100.00;101141.91;5260182;28;20033;-84
2022/12/12 06:08:38;;;;;;;57.97;23.77;;;;;;;-5.38;100.00;101142.72;5258986;28;20079;-84
2022/12/12 06:11:09;;;;;;;51.78;23.85;;;;;;;-5.49;100.00;101150.75;5254131;28;20084;-84
2022/12/12 06:13:40;;;;;;;53.20;21.92;;;;;;;-5.48;100.00;101151.63;5259341;28;20061;-84
2022/12/12 06:16:15;;;;;;;52.85;22.60;;;;;;;-5.51;100.00;101153.38;5258387;28;20037;-85
2022/12/12 06:18:54;;;;;;;57.25;24.83;;;;;;;-5.49;100.00;101150.75;5255995;28;20079;-84
2022/12/12 06:21:25;;;;;;;56.97;23.45;;;;;;;-5.49;100.00;101150.75;5259180;28;20049;-85
2022/12/12 06:23:56;;;;;;;53.72;22.90;;;;;;;-5.49;100.00;101158.56;5260690;28;20095;-84
2022/12/12 06:26:27;;;;;;;57.55;23.40;;;;;;;-5.46;100.00;101150.69;5258610;28;20048;-84
2022/12/12 06:28:59;;;;;;;56.22;21.63;;;;;;;-5.20;100.00;101162.28;5260357;28;20127;-85
2022/12/12 06:31:31;;;;;;;61.78;22.30;;;;;;;-5.10;100.00;101155.13;5258156;28;20026;-83
2022/12/12 06:34:02;;;;;;;71.80;24.92;;;;;;;-4.89;100.00;101156.38;5257851;28;20037;-84
2022/12/12 06:36:33;;;;;;;68.25;24.23;;;;;;;-4.61;100.00;101147.00;5256628;28;20026;-83
2022/12/12 06:39:05;;;;;;;66.88;24.13;;;;;;;-4.65;100.00;101149.72;5258975;28;20025;-84
2022/12/12 06:41:37;;;;;;;77.35;28.98;;;;;;;-4.53;100.00;101151.19;5240449;28;20033;-85
2022/12/12 06:44:08;;;;;;;61.15;23.55;;;;;;;-4.42;100.00;101152.63;5261930;28;20021;-85
2022/12/12 06:46:39;;;;;;;67.75;24.90;;;;;;;-4.49;100.00;101156.25;5244600;28;20026;-84
2022/12/12 06:49:14;;;;;;;76.18;29.05;;;;;;;-4.59;100.00;101162.59;5238761;28;20025;-85
2022/12/12 06:51:47;;;;;;;68.88;26.50;;;;;;;-4.76;100.00;101173.41;5261247;28;20033;-86
2022/12/12 06:54:19;;;;;;;64.72;25.45;;;;;;;-4.93;100.00;101160.78;5278388;28;20493;-86
2022/12/12 06:56:50;;;;;;;59.88;23.88;;;;;;;-5.05;100.00;101168.88;5261518;28;20037;-86
2022/12/12 06:59:21;;;;;;;61.05;24.15;;;;;;;-5.11;100.00;101174.25;5243380;28;20029;-85
2022/12/12 07:01:57;;;;;;;62.60;24.75;;;;;;;-5.15;100.00;101165.66;5260815;28;20081;-86
2022/12/12 07:04:28;;;;;;;61.22;24.13;;;;;;;-5.17;100.00;101168.28;5259636;28;20021;-85
2022/12/12 07:07:00;;;;;;;62.05;23.42;;;;;;;-5.21;100.00;101182.22;5244035;28;20021;-86
2022/12/12 07:09:31;;;;;;;62.72;24.05;;;;;;;-5.27;100.00;101177.16;5259448;28;20117;-85
2022/12/12 07:12:03;;;;;;;57.00;23.25;;;;;;;-5.31;100.00;101183.34;5243388;28;20120;-84
2022/12/12 07:14:38;;;;;;;57.80;23.38;;;;;;;-5.27;100.00;101184.13;5259199;28;20026;-85
2022/12/12 07:17:09;;;;;;;60.30;22.40;;;;;;;-5.27;100.00;101184.13;5259810;28;20026;-84
2022/12/12 07:19:40;;;;;;;64.53;23.90;;;;;;;-5.27;100.00;101192.78;5261561;28;20044;-84
2022/12/12 07:22:12;;;;;;;60.85;21.25;;;;;;;-5.32;100.00;101195.47;5262521;28;20092;-85
2022/12/12 07:24:43;;;;;;;61.25;24.35;;;;;;;-5.37;100.00;101202.50;5263984;28;20048;-84
2022/12/12 07:27:14;;;;;;;56.70;23.50;;;;;;;-5.54;100.00;101195.06;5259234;28;20047;-85
2022/12/12 07:29:46;;;;;;;54.78;23.58;;;;;;;-5.56;100.00;101198.56;5264901;28;20021;-84
2022/12/12 07:32:17;;;;;;;53.63;21.70;;;;;;;-5.59;100.00;101199.50;5264521;28;20120;-84
2022/12/12 07:34:49;;;;;;;56.47;21.70;;;;;;;-5.61;100.00;101200.41;5266146;28;20097;-85
2022/12/12 07:37:22;;;;;;;53.92;21.98;;;;;;;-5.75;100.00;101198.97;5265601;28;20312;-85
2022/12/12 07:39:54;;;;;;;51.15;19.42;;;;;;;-5.73;100.00;101202.38;5249276;28;20030;-85
2022/12/12 07:42:25;;;;;;;59.08;21.80;;;;;;;-5.77;100.00;101208.50;5262672;28;20039;-89
2022/12/12 07:44:56;;;;;;;50.20;21.13;;;;;;;-5.81;100.00;101216.41;5281249;28;20021;-85
2022/12/12 07:47:28;;;;;;;50.95;20.27;;;;;;;-5.84;100.00;101213.84;5269315;28;20095;-84
2022/12/12 07:49:59;;;;;;;50.70;20.70;;;;;;;-5.89;100.00;101212.22;5270580;28;20067;-83
2022/12/12 07:52:30;;;;;;;52.83;20.83;;;;;;;-5.81;100.00;101224.19;5271047;28;20025;-84
2022/12/12 07:55:02;;;;;;;59.40;23.50;;;;;;;-5.79;100.00;101223.25;5270421;28;20025;-84
2022/12/12 07:57:33;;;;;;;56.72;21.17;;;;;;;-5.71;100.00;101220.53;5272640;28;20213;-84
2022/12/12 08:00:07;;;;;;;60.40;22.52;;;;;;;-5.69;100.00;101223.97;5273221;28;20132;-84
2022/12/12 08:02:38;;;;;;;55.22;22.42;;;;;;;-5.65;100.00;101228.19;5274476;28;20528;-83
2022/12/12 08:05:10;;;;;;;54.20;21.38;;;;;;;-5.63;100.00;101223.81;5273873;28;20033;-83
2022/12/12 08:07:41;;;;;;;57.22;21.83;;;;;;;-5.52;100.00;101237.50;5273058;28;20033;-84
2022/12/12 08:10:13;;;;;;;60.33;22.63;;;;;;;-5.46;100.00;101240.84;5275525;28;20017;-85
2022/12/12 08:12:44;;;;;;;60.25;23.85;;;;;;;-5.39;100.00;101238.09;5277815;28;20014;-84
2022/12/12 08:15:16;;;;;;;51.45;21.40;;;;;;;-5.23;100.00;101240.38;5275578;28;20037;-85
2022/12/12 08:17:48;;;;;;;60.13;21.83;;;;;;;-5.25;100.00;101237.81;5284245;28;20084;-84
2022/12/12 08:20:19;;;;;;;56.65;20.95;;;;;;;-5.17;100.00;101242.84;5288146;28;20021;-84
2022/12/12 08:22:50;;;;;;;61.38;22.98;;;;;;;-5.20;100.00;101242.94;5286062;28;20021;-84
2022/12/12 08:25:22;;;;;;;58.97;22.65;;;;;;;-5.10;100.00;101241.84;5284680;28;20021;-82
2022/12/12 08:27:53;;;;;;;64.65;24.00;;;;;;;-5.06;100.00;101251.28;5279421;28;20042;-85
2022/12/12 08:30:24;;;;;;;66.25;24.45;;;;;;;-5.08;100.00;101250.47;5279678;28;20040;-86
2022/12/12 08:32:56;;;;;;;59.10;23.00;;;;;;;-5.04;100.00;101246.91;5275311;28;20052;-84
2022/12/12 08:35:31;;;;;;;63.90;23.58;;;;;;;-4.88;100.00;101251.78;5255277;28;20088;-85
2022/12/12 08:38:02;;;;;;;62.28;24.33;;;;;;;-4.85;100.00;101246.50;5274151;28;20018;-85
2022/12/12 08:40:34;;;;;;;65.53;23.35;;;;;;;-4.78;100.00;101255.88;5267135;28;20085;-85
2022/12/12 08:43:07;;;;;;;58.90;22.63;;;;;;;-4.81;100.00;101253.34;5273060;28;20034;-85
2022/12/12 08:45:39;;;;;;;69.22;24.15;;;;;;;-4.76;100.00;101248.91;5262214;28;20025;-85
2022/12/12 08:48:11;;;;;;;57.92;21.88;;;;;;;-4.74;100.00;101249.72;5262381;28;20398;-85
2022/12/12 08:50:42;;;;;;;65.63;22.73;;;;;;;-4.69;100.00;101254.81;5264079;28;20025;-85
2022/12/12 08:53:14;;;;;;;58.05;22.35;;;;;;;-4.57;100.00;101254.53;5268899;28;20029;-85
2022/12/12 08:55:45;;;;;;;66.65;23.40;;;;;;;-4.61;100.00;101248.56;5270996;28;20021;-84
2022/12/12 08:58:17;;;;;;;60.28;21.02;;;;;;;-4.57;100.00;101255.38;5270547;28;20167;-85
2022/12/12 09:00:49;;;;;;;58.22;22.50;;;;;;;-4.47;100.00;101256.03;5266933;28;20029;-85
2022/12/12 09:03:20;;;;;;;52.78;19.13;;;;;;;-4.37;100.00;101260.13;5265764;28;20042;-85
2022/12/12 09:05:52;;;;;;;49.67;18.88;;;;;;;-4.31;100.00;101256.53;5265136;28;20029;-84
2022/12/12 09:08:23;;;;;;;67.13;24.77;;;;;;;-4.30;100.00;101265.19;5258984;28;20021;-85
2022/12/12 09:10:54;;;;;;;57.67;20.80;;;;;;;-4.20;100.00;101261.47;5265786;28;20057;-84
2022/12/12 09:13:26;;;;;;;60.60;23.42;;;;;;;-4.15;100.00;101257.00;5242352;28;20100;-85
2022/12/12 09:15:57;;;;;;;59.03;21.73;;;;;;;-4.07;100.00;101270.66;5260456;28;20406;-84
2022/12/12 09:18:29;;;;;;;60.55;24.17;;;;;;;-4.06;100.00;101279.38;5237538;28;20117;-84
2022/12/12 09:21:00;;;;;;;53.53;21.23;;;;;;;-3.99;100.00;101271.34;5256184;28;20025;-85
2022/12/12 09:23:32;;;;;;;59.70;22.88;;;;;;;-3.98;100.00;101264.38;5262633;28;20056;-84
2022/12/12 09:26:08;;;;;;;51.33;20.45;;;;;;;-3.86;100.00;101269.25;5237649;28;20053;-84
2022/12/12 09:28:39;;;;;;;56.50;21.90;;;;;;;-3.84;100.00;101264.03;5256400;28;20037;-85
2022/12/12 09:31:12;;;;;;;52.45;20.50;;;;;;;-3.75;100.00;101265.53;5255341;28;20033;-85
2022/12/12 09:33:43;;;;;;;50.55;20.60;;;;;;;-3.73;100.00;101266.38;5238239;28;20029;-85
2022/12/12 09:36:15;;;;;;;53.05;20.63;;;;;;;-3.64;100.00;101271.34;5243835;28;20020;-85
2022/12/12 09:38:46;;;;;;;47.78;20.42;;;;;;;-3.60;100.00;101267.72;5262489;28;20041;-85
2022/12/12 09:41:22;;;;;;;50.88;21.67;;;;;;;-3.55;100.00;101265.00;5243587;28;20025;-85
2022/12/12 09:44:01;;;;;;;50.30;21.60;;;;;;;-3.55;100.00;101262.41;5260211;28;20386;-85
2022/12/12 09:46:52;;;;;;;50.83;19.75;;;;;;;-3.38;100.00;101264.53;5242190;28;20052;-84
2022/12/12 09:49:33;;;;;;;46.88;19.55;;;;;;;-3.29;100.00;101264.28;5260576;28;20026;-85
2022/12/12 09:52:05;;;;;;;49.60;19.88;;;;;;;-3.30;100.00;101268.63;5260648;28;20029;-85
2022/12/12 09:54:36;;;;;;;45.20;19.55;;;;;;;-3.21;100.00;101267.50;5262445;28;20033;-85
2022/12/12 09:57:23;;;;;;;47.05;19.08;;;;;;;-3.17;100.00;101261.31;5240825;28;20022;-85
2022/12/12 10:00:03;;;;;;;44.15;18.70;;;;;;;-3.15;100.00;101254.31;5229846;28;20026;-84
2022/12/12 10:03:28;;;;;;;46.30;18.85;;;;;;;-3.04;100.00;101253.97;5243482;28;20565;-85
2022/12/12 10:06:09;;;;;;;44.53;18.77;;;;;;;-3.00;100.00;101260.81;5217249;28;20030;-85
2022/12/12 10:09:14;;;;;;;44.30;19.48;;;;;;;-2.92;100.00;101258.84;5216048;28;20035;-84
2022/12/12 10:11:49;;;;;;;40.50;18.35;;;;;;;-2.88;100.00;101260.44;5240437;28;20172;-84
2022/12/12 10:14:33;;;;;;;43.42;18.92;;;;;;;-2.75;100.00;101255.72;5252084;28;20034;-85
2022/12/12 10:17:11;;;;;;;42.53;17.77;;;;;;;-2.69;100.00;101254.66;5252054;28;20406;-86
2022/12/12 10:19:50;;;;;;;47.50;20.05;;;;;;;-2.60;100.00;101248.31;5243132;28;20032;-86
2022/12/12 10:22:39;;;;;;;44.08;22.08;;;;;;;-2.54;100.00;101248.09;5253202;28;20481;-86
2022/12/12 10:25:23;;;;;;;42.38;18.10;;;;;;;-2.51;100.00;101255.84;5242787;28;20025;-86
2022/12/12 10:28:25;;;;;;;42.63;18.00;;;;;;;-2.42;100.00;101255.56;5266650;28;20049;-86
2022/12/12 10:31:15;;;;;;;38.67;18.08;;;;;;;-2.42;100.00;101252.97;5257697;28;20133;-86
2022/12/12 10:33:58;;;;;;;40.08;17.73;;;;;;;-2.36;100.00;101255.38;5260184;28;20029;-86
2022/12/12 10:36:45;;;;;;;34.20;17.17;;;;;;;-2.26;100.00;101255.06;5251315;28;20375;-86
2022/12/12 10:39:19;;;;;;;40.83;18.17;;;;;;;-2.18;100.00;101245.22;5251927;28;20068;-85
2022/12/12 10:42:16;;;;;;;40.00;17.80;;;;;;;-2.01;100.00;101242.88;5258409;28;20512;-86
2022/12/12 10:45:35;;;;;;;38.40;16.60;;;;;;;-1.89;100.00;101231.16;5257637;28;20474;-85
2022/12/12 10:48:06;;;;;;;39.70;17.40;;;;;;;-1.77;100.00;101227.25;5260066;28;20490;-86
2022/12/12 10:50:43;;;;;;;42.88;19.10;;;;;;;-1.48;100.00;101234.06;5263035;28;20048;-85
2022/12/12 10:53:14;;;;;;;42.00;18.80;;;;;;;-1.40;100.00;101232.03;5265822;28;20031;-86
2022/12/12 10:56:09;;;;;;;41.63;18.70;;;;;;;-1.00;100.00;101245.38;5269434;28;20120;-85
2022/12/12 10:58:43;;;;;;;42.72;18.90;;;;;;;-0.60;100.00;101238.59;5271753;28;20043;-85
2022/12/12 11:01:21;;;;;;;94.45;26.67;;;;;;;1.38;100.00;101244.81;5288576;28;20358;-85
2022/12/12 11:03:56;;;;;;;262.63;34.92;;;;;;;3.27;100.00;101244.72;5268667;28;20698;-85
2022/12/12 11:06:36;;;;;;;32.55;17.48;;;;;;;5.22;100.00;101242.78;5258917;28;20029;-86
2022/12/12 11:09:16;;;;;;;23.23;11.98;;;;;;;6.84;100.00;101239.09;5258958;28;20575;-85
2022/12/12 11:12:11;;;;;;;19.75;10.98;;;;;;;8.72;100.00;101228.66;5260002;28;20386;-86
2022/12/12 11:14:50;;;;;;;19.85;10.65;;;;;;;9.56;100.00;101217.50;5275764;28;20061;-86
2022/12/12 11:17:25;;;;;;;17.52;10.75;;;;;;;10.83;100.00;101216.47;5258742;28;20124;-86
2022/12/12 11:19:59;;;;;;;17.70;10.65;;;;;;;11.57;100.00;101211.72;5275456;28;20053;-86
2022/12/12 11:22:32;;;;;;;16.27;10.25;;;;;;;12.15;100.00;101211.72;5258680;28;20050;-86
2022/12/12 11:25:04;;;;;;;16.30;10.65;;;;;;;12.99;100.00;101212.66;5275201;28;20057;-86
2022/12/12 11:27:39;;;;;;;16.30;10.77;;;;;;;13.34;91.21;101209.28;5255394;28;20038;-86
2022/12/12 11:30:27;;;;;;;16.08;11.25;;;;;;;12.95;81.53;101212.13;5274281;28;20075;-86
2022/12/12 11:32:58;;;;;;;;;;;;;;;14.31;74.22;101210.25;5243586;28;20022;-85
2022/12/12 11:35:36;;;;;;;18.00;11.85;;;;;;;12.66;72.63;101212.28;5239611;28;20115;-85
2022/12/12 11:38:17;;;;;;;17.33;10.40;;;;;;;13.36;85.02;101204.59;5253206;28;20021;-87
2022/12/12 11:41:01;;;;;;;17.63;11.88;;;;;;;13.48;71.47;101202.53;5253111;28;20032;-85
2022/12/12 11:43:52;;;;;;;16.58;11.40;;;;;;;12.94;71.01;101198.88;5253270;28;20093;-85
2022/12/12 11:46:28;;;;;;;16.85;11.88;;;;;;;13.01;69.90;101198.16;5256585;28;20125;-84
2022/12/12 11:49:02;;;;;;;17.75;11.35;;;;;;;14.67;74.48;101198.53;5258227;28;20088;-86
2022/12/12 11:51:42;;;;;;;14.73;10.57;;;;;;;13.94;66.88;101199.75;5258618;28;20057;-87